Time;durP1;ratioP1;P1;durP2;ratioP2;P2;SDS_P1;SDS_P2;PMS_P1;PMS_P2;Temp;Humidity;BMP_temperature;BMP_pressure;BME280_temperature;BME280_humidity;BME280_pressure;Samples;Min_cycle;Max_cycle;Signal;HPM_P1;HPM_P2
2021/12/14 00:00:39;;;;;;;22.83;17.80;;;10.60;99.90;;;;;;637164;225;27247;-79
2021/12/14 00:03:06;;;;;;;25.90;18.07;;;10.50;99.90;;;;;;636893;226;26565;-78
2021/12/14 00:05:34;;;;;;;28.03;17.53;;;10.60;99.90;;;;;;637267;225;26593;-79
2021/12/14 00:08:02;;;;;;;26.00;18.73;;;10.60;99.90;;;;;;637229;226;26574;-79
2021/12/14 00:10:48;;;;;;;26.37;17.33;;;10.70;99.90;;;;;;637286;225;26580;-79
2021/12/14 00:13:06;;;;;;;22.80;17.67;;;10.70;99.90;;;;;;635841;226;26573;-79
2021/12/14 00:15:28;;;;;;;22.60;17.70;;;10.60;99.90;;;;;;636733;225;26557;-79
2021/12/14 00:17:55;;;;;;;24.77;17.27;;;10.50;99.90;;;;;;637728;226;26568;-79
2021/12/14 00:20:25;;;;;;;22.80;17.47;;;10.50;99.90;;;;;;637761;226;26571;-84
2021/12/14 00:25:37;;;;;;;22.23;15.60;;;10.50;99.90;;;;;;635316;225;26541;-79
2021/12/14 00:28:07;;;;;;;23.90;17.93;;;10.50;99.90;;;;;;637546;226;26785;-81
2021/12/14 00:30:35;;;;;;;21.40;15.83;;;10.50;99.90;;;;;;637519;226;26545;-80
2021/12/14 00:33:01;;;;;;;22.37;16.80;;;10.50;99.90;;;;;;637332;226;26897;-80
2021/12/14 00:35:28;;;;;;;20.33;16.70;;;10.40;99.90;;;;;;638307;223;26815;-79
2021/12/14 00:37:58;;;;;;;21.80;16.23;;;10.50;99.90;;;;;;638696;221;26751;-79
2021/12/14 00:40:23;;;;;;;22.23;16.80;;;10.80;99.90;;;;;;638230;225;26787;-79
2021/12/14 00:42:50;;;;;;;20.57;16.57;;;10.90;99.90;;;;;;638063;225;26596;-79
2021/12/14 00:45:17;;;;;;;19.87;16.23;;;11.10;99.90;;;;;;637964;225;26540;-79
2021/12/14 00:47:45;;;;;;;19.33;15.60;;;10.90;99.90;;;;;;637977;225;26537;-78
2021/12/14 00:50:13;;;;;;;21.97;15.97;;;10.80;99.90;;;;;;638003;225;26528;-79
2021/12/14 00:52:42;;;;;;;21.03;16.67;;;10.70;99.90;;;;;;638007;225;26509;-79
2021/12/14 00:55:08;;;;;;;20.07;15.47;;;10.60;99.90;;;;;;637737;225;26599;-78
2021/12/14 00:57:37;;;;;;;20.53;16.90;;;10.60;99.90;;;;;;637745;225;26830;-79
2021/12/14 01:00:08;;;;;;;20.00;16.40;;;10.70;99.90;;;;;;637760;225;26544;-79
2021/12/14 01:02:35;;;;;;;21.53;16.37;;;10.70;99.90;;;;;;637789;225;27211;-80
2021/12/14 01:05:02;;;;;;;22.10;16.83;;;10.90;99.90;;;;;;637800;225;26572;-78
2021/12/14 01:07:29;;;;;;;20.80;16.00;;;11.10;99.90;;;;;;637460;225;26782;-79
2021/12/14 01:09:57;;;;;;;19.10;15.43;;;11.10;99.90;;;;;;637667;225;26589;-79
2021/12/14 01:12:35;;;;;;;21.80;17.47;;;10.80;99.90;;;;;;637335;225;26790;-78
2021/12/14 01:15:00;;;;;;;21.03;16.80;;;10.80;99.90;;;;;;636314;225;26800;-79
2021/12/14 01:17:28;;;;;;;20.47;16.27;;;11.00;99.90;;;;;;636484;226;26775;-79
2021/12/14 01:19:57;;;;;;;19.50;16.10;;;10.80;99.90;;;;;;637178;226;26593;-79
2021/12/14 01:25:02;;;;;;;20.57;16.77;;;10.90;99.90;;;;;;637385;226;26580;-79
2021/12/14 01:27:27;;;;;;;21.07;16.60;;;10.90;99.90;;;;;;637207;226;26795;-79
2021/12/14 01:29:55;;;;;;;20.40;17.00;;;10.70;99.90;;;;;;637595;226;26560;-79
2021/12/14 01:32:24;;;;;;;20.77;16.10;;;10.50;99.90;;;;;;637753;225;26847;-79
2021/12/14 01:34:48;;;;;;;20.93;16.17;;;10.30;99.90;;;;;;637631;226;26537;-79
2021/12/14 01:37:18;;;;;;;17.83;15.70;;;10.20;99.90;;;;;;637847;226;26813;-80
2021/12/14 01:39:47;;;;;;;18.43;15.17;;;10.40;99.90;;;;;;637550;226;26545;-79
2021/12/14 01:42:12;;;;;;;19.67;15.07;;;10.60;99.90;;;;;;637674;225;26535;-79
2021/12/14 01:44:40;;;;;;;16.83;14.53;;;10.60;99.90;;;;;;637581;226;26537;-79
2021/12/14 01:47:08;;;;;;;20.13;14.23;;;10.40;99.90;;;;;;638856;223;26525;-79
2021/12/14 01:49:35;;;;;;;18.17;14.53;;;10.30;99.90;;;;;;638654;225;26789;-79
2021/12/14 01:52:02;;;;;;;14.97;13.30;;;10.40;99.90;;;;;;638276;225;26592;-79
2021/12/14 01:54:29;;;;;;;15.83;13.23;;;10.60;99.90;;;;;;637882;225;26595;-79
2021/12/14 01:56:56;;;;;;;17.67;14.03;;;10.30;99.90;;;;;;637690;222;26516;-79
2021/12/14 01:59:27;;;;;;;16.57;12.60;;;10.10;99.90;;;;;;637886;225;26543;-79
2021/12/14 02:01:57;;;;;;;15.93;12.97;;;10.20;99.90;;;;;;637691;221;26558;-79
2021/12/14 02:04:20;;;;;;;16.87;12.67;;;10.20;99.90;;;;;;637647;225;26773;-79
2021/12/14 02:06:52;;;;;;;14.73;11.97;;;10.20;99.90;;;;;;637536;222;26573;-79
2021/12/14 02:09:20;;;;;;;15.20;13.03;;;10.20;99.90;;;;;;637532;225;26589;-79
2021/12/14 02:11:48;;;;;;;15.23;11.73;;;10.10;99.90;;;;;;637742;225;26573;-79
2021/12/14 02:14:16;;;;;;;14.57;12.43;;;10.20;99.90;;;;;;637427;225;26565;-79
2021/12/14 02:16:44;;;;;;;15.03;12.73;;;10.30;99.90;;;;;;637808;225;26573;-79
2021/12/14 02:19:13;;;;;;;17.50;12.27;;;10.20;99.90;;;;;;637515;225;26603;-79
2021/12/14 02:21:40;;;;;;;14.47;11.80;;;10.20;99.90;;;;;;637746;220;26578;-79
2021/12/14 02:24:08;;;;;;;12.93;11.07;;;10.20;99.90;;;;;;637368;226;26538;-78
2021/12/14 02:26:36;;;;;;;13.77;12.07;;;10.20;99.90;;;;;;637408;226;26531;-78
2021/12/14 02:29:04;;;;;;;12.80;11.13;;;10.30;99.90;;;;;;637172;222;26586;-78
2021/12/14 02:31:32;;;;;;;14.13;11.87;;;10.20;99.90;;;;;;637341;226;26591;-79
2021/12/14 02:34:02;;;;;;;13.57;10.90;;;10.30;99.90;;;;;;637367;226;26579;-79
2021/12/14 02:36:29;;;;;;;14.27;11.23;;;10.60;99.90;;;;;;637254;226;26559;-79
2021/12/14 02:39:07;;;;;;;14.83;11.07;;;10.50;99.90;;;;;;637321;226;26581;-79
2021/12/14 02:41:25;;;;;;;13.67;10.63;;;10.30;99.90;;;;;;636512;226;26553;-79
2021/12/14 02:43:53;;;;;;;13.83;11.30;;;10.30;99.90;;;;;;637403;226;26561;-79
2021/12/14 02:46:25;;;;;;;13.73;11.27;;;10.30;99.90;;;;;;637207;226;26573;-78
2021/12/14 02:48:54;;;;;;;12.80;10.37;;;10.30;99.90;;;;;;637211;226;26567;-78
2021/12/14 02:51:22;;;;;;;15.50;11.10;;;10.10;99.90;;;;;;637767;226;26529;-79
2021/12/14 02:53:49;;;;;;;11.60;10.40;;;10.30;99.90;;;;;;637696;226;26766;-79
2021/12/14 02:56:16;;;;;;;13.63;11.33;;;10.50;99.90;;;;;;637683;226;26578;-78
2021/12/14 02:58:44;;;;;;;10.90;9.80;;;10.30;99.90;;;;;;638641;223;27020;-78
2021/12/14 03:01:11;;;;;;;12.03;10.57;;;10.10;99.90;;;;;;639132;225;26523;-78
2021/12/14 03:03:38;;;;;;;12.13;9.73;;;10.00;99.90;;;;;;638884;225;26726;-79
2021/12/14 03:06:06;;;;;;;11.70;10.50;;;9.90;99.90;;;;;;638423;225;26544;-79
2021/12/14 03:08:37;;;;;;;13.70;11.20;;;10.10;99.90;;;;;;637960;225;26750;-79
2021/12/14 03:11:10;;;;;;;15.40;11.77;;;10.50;99.90;;;;;;637656;225;26508;-78
2021/12/14 03:13:27;;;;;;;12.33;10.33;;;10.50;99.90;;;;;;636889;225;26833;-79
2021/12/14 03:15:54;;;;;;;14.30;10.63;;;10.20;99.90;;;;;;637678;225;26678;-78
2021/12/14 03:18:36;;;;;;;12.63;10.53;;;10.00;99.90;;;;;;637535;225;26883;-79
2021/12/14 03:21:04;;;;;;;13.03;9.90;;;9.80;99.90;;;;;;637607;225;26583;-79
2021/12/14 03:23:31;;;;;;;11.83;9.83;;;9.80;99.90;;;;;;637521;225;26568;-79
2021/12/14 03:25:59;;;;;;;12.37;10.40;;;9.80;99.90;;;;;;637706;225;27142;-79
2021/12/14 03:28:27;;;;;;;11.23;10.03;;;9.90;99.90;;;;;;637708;225;26584;-79
2021/12/14 03:31:05;;;;;;;11.40;10.03;;;10.00;99.90;;;;;;637640;225;26552;-78
2021/12/14 03:33:33;;;;;;;12.93;10.33;;;10.00;99.90;;;;;;636623;225;26560;-79
2021/12/14 03:36:01;;;;;;;11.87;10.57;;;9.70;99.90;;;;;;637118;226;26958;-79
2021/12/14 03:38:29;;;;;;;13.93;10.93;;;9.70;99.90;;;;;;637189;226;26570;-79
2021/12/14 03:40:57;;;;;;;11.40;10.07;;;9.70;99.90;;;;;;637322;226;26556;-78
2021/12/14 03:43:24;;;;;;;12.37;11.07;;;9.80;99.90;;;;;;637328;221;26922;-78
2021/12/14 03:45:51;;;;;;;12.07;10.83;;;10.00;99.90;;;;;;637359;226;26575;-79
2021/12/14 03:48:18;;;;;;;10.73;9.53;;;9.90;99.90;;;;;;637340;226;26582;-79
2021/12/14 03:50:45;;;;;;;11.43;10.23;;;9.80;99.90;;;;;;637235;226;26589;-79
2021/12/14 03:53:13;;;;;;;12.50;10.33;;;10.00;99.90;;;;;;637398;226;26575;-79
2021/12/14 03:55:42;;;;;;;13.83;11.30;;;10.20;99.90;;;;;;637322;226;26564;-79
2021/12/14 03:58:10;;;;;;;12.43;10.10;;;9.90;99.90;;;;;;637224;226;26551;-79
2021/12/14 04:00:38;;;;;;;14.23;11.30;;;9.80;99.90;;;;;;637340;225;26588;-79
2021/12/14 04:03:06;;;;;;;14.20;10.40;;;9.70;99.90;;;;;;637338;226;26569;-78
2021/12/14 04:05:34;;;;;;;13.40;10.10;;;9.70;99.90;;;;;;637804;226;26539;-78
2021/12/14 04:07:59;;;;;;;13.83;11.03;;;9.50;99.90;;;;;;637696;226;26773;-79
2021/12/14 04:10:27;;;;;;;14.47;11.27;;;9.50;99.90;;;;;;638917;223;26561;-79
2021/12/14 04:12:54;;;;;;;11.13;9.70;;;9.60;99.90;;;;;;639169;225;26723;-80
2021/12/14 04:15:21;;;;;;;13.40;10.50;;;9.50;99.90;;;;;;638730;225;26518;-78
2021/12/14 04:17:48;;;;;;;11.83;10.10;;;9.60;99.90;;;;;;638792;225;26723;-79
2021/12/14 04:20:16;;;;;;;17.17;11.40;;;9.50;99.90;;;;;;638321;225;26532;-79
2021/12/14 04:22:48;;;;;;;13.50;10.87;;;9.60;99.90;;;;;;637864;225;26505;-80
2021/12/14 04:25:11;;;;;;;12.67;9.77;;;9.60;99.90;;;;;;637667;225;27152;-77
2021/12/14 04:27:38;;;;;;;11.57;9.87;;;9.50;99.90;;;;;;637874;225;26493;-77
2021/12/14 04:30:05;;;;;;;15.43;10.67;;;9.40;99.90;;;;;;637582;225;26818;-77
2021/12/14 04:32:33;;;;;;;16.10;12.07;;;9.50;99.90;;;;;;637647;225;27223;-77
2021/12/14 04:35:00;;;;;;;13.40;11.50;;;9.70;99.90;;;;;;637702;225;26573;-78
2021/12/14 04:37:27;;;;;;;16.03;12.33;;;9.90;99.90;;;;;;637702;225;26791;-77
2021/12/14 04:40:11;;;;;;;15.00;11.37;;;9.80;99.90;;;;;;637744;221;26572;-77
2021/12/14 04:52:37;;;;;;;15.17;11.13;;;9.40;99.90;;;;;;637493;226;26755;-80
2021/12/14 04:55:05;;;;;;;16.40;10.87;;;9.40;99.90;;;;;;636897;226;26587;-79
2021/12/14 04:57:33;;;;;;;14.03;10.50;;;9.40;99.90;;;;;;637261;226;26584;-80
2021/12/14 05:00:01;;;;;;;14.60;10.83;;;9.40;99.90;;;;;;637235;226;26605;-80
2021/12/14 05:02:29;;;;;;;14.90;10.57;;;9.50;99.90;;;;;;636212;226;26570;-79
2021/12/14 05:04:57;;;;;;;19.47;11.03;;;9.50;99.90;;;;;;637317;226;26529;-79
2021/12/14 05:07:45;;;;;;;15.37;11.43;;;9.60;99.90;;;;;;637369;226;26575;-78
2021/12/14 05:09:54;;;;;;;15.50;10.70;;;9.60;99.90;;;;;;635698;226;26589;-80
2021/12/14 05:12:23;;;;;;;15.30;11.07;;;9.40;99.90;;;;;;637376;226;26521;-79
2021/12/14 05:14:50;;;;;;;17.43;10.47;;;9.40;99.90;;;;;;637302;226;26804;-79
2021/12/14 05:17:18;;;;;;;15.00;11.30;;;9.50;99.90;;;;;;637417;226;27219;-79
2021/12/14 05:19:46;;;;;;;13.90;10.77;;;9.60;99.90;;;;;;637274;226;26586;-79
2021/12/14 05:22:18;;;;;;;14.30;11.27;;;9.70;99.90;;;;;;638685;223;26563;-79
2021/12/14 05:24:47;;;;;;;13.47;11.00;;;9.70;99.90;;;;;;638670;225;26758;-79
2021/12/14 05:27:13;;;;;;;13.40;10.57;;;9.50;99.90;;;;;;638164;225;26612;-79
2021/12/14 05:29:41;;;;;;;15.83;10.63;;;9.60;99.90;;;;;;638099;224;26858;-80
2021/12/14 05:32:07;;;;;;;14.83;10.90;;;9.50;99.90;;;;;;638018;225;26532;-79
2021/12/14 05:34:34;;;;;;;13.57;10.47;;;9.50;99.90;;;;;;638032;225;26499;-79
2021/12/14 05:37:02;;;;;;;15.90;10.87;;;9.70;99.90;;;;;;638027;225;26776;-79
2021/12/14 05:39:46;;;;;;;13.73;10.87;;;9.80;99.90;;;;;;637950;225;26525;-79
2021/12/14 05:44:30;;;;;;;15.47;11.63;;;9.30;99.90;;;;;;637630;225;26562;-79
2021/12/14 05:46:57;;;;;;;14.43;10.70;;;9.10;99.90;;;;;;637601;225;26857;-83
2021/12/14 05:49:24;;;;;;;13.83;11.03;;;9.30;99.90;;;;;;637494;224;26619;-79
2021/12/14 05:51:52;;;;;;;15.33;11.20;;;9.50;99.90;;;;;;637697;225;26854;-79
2021/12/14 05:54:19;;;;;;;15.57;11.93;;;9.50;99.90;;;;;;637649;225;26477;-79
2021/12/14 05:56:46;;;;;;;17.17;12.40;;;9.20;99.90;;;;;;637680;225;26791;-79
2021/12/14 05:59:14;;;;;;;17.73;14.20;;;9.30;99.90;;;;;;637349;226;26596;-79
2021/12/14 06:01:42;;;;;;;17.53;13.77;;;9.30;99.90;;;;;;637290;226;26572;-84
2021/12/14 06:04:10;;;;;;;18.70;12.40;;;9.40;99.90;;;;;;637420;222;26562;-79
2021/12/14 06:06:39;;;;;;;16.23;13.13;;;9.40;99.90;;;;;;637414;226;26554;-79
2021/12/14 06:09:06;;;;;;;17.10;12.87;;;9.60;99.90;;;;;;637405;226;26569;-79
2021/12/14 06:11:33;;;;;;;15.70;11.77;;;9.60;99.90;;;;;;637652;226;26589;-79
2021/12/14 06:14:00;;;;;;;17.80;13.13;;;9.80;99.90;;;;;;637734;226;26534;-80
2021/12/14 06:16:28;;;;;;;19.17;12.70;;;9.90;99.90;;;;;;637850;226;26761;-79
2021/12/14 06:19:08;;;;;;;15.07;12.10;;;9.80;99.90;;;;;;637679;226;26567;-79
2021/12/14 06:21:35;;;;;;;11.97;10.27;;;9.80;99.90;;;;;;637752;226;27134;-79
2021/12/14 06:24:03;;;;;;;11.83;9.77;;;9.50;99.90;;;;;;637370;226;26538;-79
2021/12/14 06:26:37;;;;;;;12.77;10.30;;;9.20;99.90;;;;;;637391;226;26794;-79
2021/12/14 06:29:05;;;;;;;12.97;9.90;;;9.20;99.90;;;;;;637309;226;27241;-79
2021/12/14 06:31:32;;;;;;;12.37;10.33;;;9.20;99.90;;;;;;637383;226;26566;-79
2021/12/14 06:34:14;;;;;;;12.43;9.57;;;9.20;99.90;;;;;;638807;223;26799;-79
2021/12/14 06:37:04;;;;;;;11.60;9.07;;;9.50;99.90;;;;;;637408;225;26530;-79
2021/12/14 06:39:31;;;;;;;14.03;9.23;;;9.30;99.90;;;;;;634530;224;26657;-79
2021/12/14 06:42:07;;;;;;;11.40;9.30;;;9.30;99.90;;;;;;636383;225;26566;-79
2021/12/14 06:44:34;;;;;;;12.10;9.53;;;9.40;99.90;;;;;;638081;225;26504;-79
2021/12/14 06:47:01;;;;;;;11.97;9.60;;;9.40;99.90;;;;;;638083;225;26509;-79
2021/12/14 06:49:28;;;;;;;11.10;9.90;;;9.30;99.90;;;;;;638097;222;26780;-79
2021/12/14 06:51:56;;;;;;;12.37;9.97;;;9.20;99.90;;;;;;637882;225;26563;-79
2021/12/14 06:54:24;;;;;;;11.70;9.20;;;9.20;99.90;;;;;;637759;225;26824;-79
2021/12/14 06:56:51;;;;;;;12.80;9.90;;;9.30;99.90;;;;;;637731;225;26547;-79
2021/12/14 06:59:20;;;;;;;12.17;9.60;;;9.30;99.90;;;;;;637654;225;26814;-79
2021/12/14 07:01:47;;;;;;;14.20;10.30;;;9.30;99.90;;;;;;637577;225;26584;-79
2021/12/14 07:04:14;;;;;;;11.70;9.23;;;9.40;99.90;;;;;;637562;225;26530;-79
2021/12/14 07:06:42;;;;;;;12.43;9.90;;;9.40;99.90;;;;;;637673;223;26584;-78
2021/12/14 07:09:09;;;;;;;11.97;9.20;;;9.50;99.90;;;;;;637370;225;26598;-79
2021/12/14 07:11:36;;;;;;;13.93;9.30;;;9.40;99.90;;;;;;637315;226;26549;-79
2021/12/14 07:14:04;;;;;;;12.50;9.93;;;9.40;99.90;;;;;;637420;226;26931;-78
2021/12/14 07:16:31;;;;;;;11.90;9.40;;;9.50;99.90;;;;;;637137;225;26577;-79
2021/12/14 07:19:00;;;;;;;11.77;9.20;;;9.20;99.90;;;;;;637588;225;26838;-79
2021/12/14 07:21:34;;;;;;;11.87;8.93;;;9.30;99.90;;;;;;637827;222;26774;-79
2021/12/14 07:24:29;;;;;;;11.90;9.47;;;9.60;99.90;;;;;;637757;226;26521;-79
2021/12/14 07:27:08;;;;;;;11.03;8.83;;;9.60;99.90;;;;;;637117;225;26764;-79
2021/12/14 07:29:35;;;;;;;13.53;10.00;;;9.80;99.90;;;;;;637838;226;26796;-79
2021/12/14 07:32:03;;;;;;;11.07;8.43;;;10.00;99.90;;;;;;637832;226;26539;-78
2021/12/14 07:34:30;;;;;;;10.40;9.00;;;10.20;99.90;;;;;;637841;226;26757;-78
2021/12/14 07:36:57;;;;;;;9.83;8.67;;;10.20;99.90;;;;;;637581;226;26571;-79
2021/12/14 07:39:24;;;;;;;11.00;8.63;;;10.10;99.90;;;;;;637341;226;26847;-79
2021/12/14 07:41:52;;;;;;;10.53;9.03;;;10.20;99.90;;;;;;637419;226;26570;-79
2021/12/14 07:44:21;;;;;;;11.80;8.83;;;9.90;99.90;;;;;;637992;223;26813;-79
2021/12/14 07:46:48;;;;;;;14.83;9.67;;;9.80;99.90;;;;;;638919;225;26559;-79
2021/12/14 07:49:20;;;;;;;10.33;8.67;;;9.50;99.90;;;;;;638502;225;27141;-79
2021/12/14 07:51:47;;;;;;;10.57;8.77;;;9.60;99.90;;;;;;638184;225;26585;-79
2021/12/14 07:54:17;;;;;;;12.53;9.37;;;9.60;99.90;;;;;;638009;225;26585;-78
2021/12/14 07:56:46;;;;;;;10.87;9.43;;;9.60;99.90;;;;;;637697;225;26524;-79
2021/12/14 07:59:29;;;;;;;12.63;8.97;;;9.80;99.90;;;;;;644773;222;26555;-79
2021/12/14 08:02:20;;;;;;;11.23;9.60;;;10.00;99.90;;;;;;636158;226;26766;-79
2021/12/14 08:05:22;;;;;;;12.00;9.17;;;9.60;99.90;;;;;;634725;226;26576;-78
2021/12/14 08:07:47;;;;;;;11.17;9.50;;;9.60;99.90;;;;;;635878;226;26643;-84
2021/12/14 08:10:16;;;;;;;12.80;9.67;;;9.50;99.90;;;;;;636306;224;27011;-79
2021/12/14 08:12:50;;;;;;;12.00;9.70;;;9.50;99.90;;;;;;642263;221;26544;-79
2021/12/14 08:15:23;;;;;;;12.20;9.43;;;9.20;99.90;;;;;;639346;222;26573;-78
2021/12/14 08:18:02;;;;;;;11.50;9.77;;;9.10;99.90;;;;;;637489;225;26592;-79
2021/12/14 08:20:30;;;;;;;11.77;9.33;;;9.20;99.90;;;;;;649395;221;26580;-78
2021/12/14 08:22:57;;;;;;;11.57;9.70;;;9.50;99.90;;;;;;648403;222;26555;-78
2021/12/14 08:25:25;;;;;;;12.57;9.77;;;9.50;99.90;;;;;;644044;221;26783;-79
2021/12/14 08:28:01;;;;;;;10.90;9.33;;;9.60;99.90;;;;;;645155;222;26863;-79
2021/12/14 08:30:28;;;;;;;13.23;9.43;;;9.60;99.90;;;;;;646351;217;26591;-79
2021/12/14 08:32:56;;;;;;;10.33;9.23;;;9.70;99.90;;;;;;646501;222;26834;-80
2021/12/14 08:35:23;;;;;;;11.87;9.33;;;9.80;99.90;;;;;;646023;221;26811;-79
2021/12/14 08:37:53;;;;;;;12.97;10.40;;;9.80;99.90;;;;;;643688;222;26500;-79
2021/12/14 08:40:18;;;;;;;13.27;9.80;;;10.10;99.90;;;;;;644847;221;26829;-80
2021/12/14 08:42:52;;;;;;;13.53;10.43;;;9.80;99.90;;;;;;642627;222;26898;-80
2021/12/14 08:47:48;;;;;;;12.90;10.37;;;9.50;99.90;;;;;;645797;220;26618;-78
2021/12/14 08:50:15;;;;;;;12.20;9.70;;;9.40;99.90;;;;;;647038;220;26570;-78
2021/12/14 08:52:42;;;;;;;12.00;10.23;;;9.60;99.90;;;;;;637251;226;26601;-79
2021/12/14 08:55:10;;;;;;;12.97;10.07;;;9.80;99.90;;;;;;643864;222;27258;-77
2021/12/14 08:57:37;;;;;;;13.10;10.27;;;10.10;99.90;;;;;;643437;219;26573;-84
2021/12/14 09:00:08;;;;;;;11.37;9.33;;;9.90;99.90;;;;;;647169;221;26836;-79
2021/12/14 09:02:32;;;;;;;13.10;10.37;;;9.80;99.90;;;;;;647944;221;26772;-80
2021/12/14 09:05:09;;;;;;;12.77;10.50;;;9.70;99.90;;;;;;642020;221;26539;-80
2021/12/14 09:07:36;;;;;;;10.87;9.73;;;9.80;99.90;;;;;;648961;222;26597;-79
2021/12/14 09:10:04;;;;;;;10.97;9.67;;;9.80;99.90;;;;;;648975;221;26803;-79
2021/12/14 09:12:31;;;;;;;12.93;10.17;;;10.00;99.90;;;;;;638165;221;26508;-79
2021/12/14 09:14:58;;;;;;;14.73;10.27;;;9.80;99.90;;;;;;637693;225;26878;-79
2021/12/14 09:17:25;;;;;;;12.60;10.43;;;9.90;99.90;;;;;;642668;222;26579;-79
2021/12/14 09:19:53;;;;;;;12.47;10.10;;;9.70;99.90;;;;;;645237;222;26800;-81
2021/12/14 09:22:35;;;;;;;14.77;10.80;;;9.70;99.90;;;;;;637635;225;26544;-83
2021/12/14 09:25:03;;;;;;;14.60;10.13;;;9.60;99.90;;;;;;637227;225;26574;-86
2021/12/14 09:27:31;;;;;;;11.17;9.93;;;9.70;99.90;;;;;;637782;225;26560;-83
2021/12/14 09:29:59;;;;;;;12.57;10.77;;;9.90;99.90;;;;;;637592;225;26601;-85
2021/12/14 09:32:28;;;;;;;13.57;11.10;;;10.20;99.90;;;;;;637540;225;26569;-82
2021/12/14 09:34:56;;;;;;;17.37;12.80;;;10.30;99.90;;;;;;637371;225;26576;-84
2021/12/14 09:37:24;;;;;;;14.23;11.10;;;10.30;99.90;;;;;;637157;225;26585;-81
2021/12/14 09:39:51;;;;;;;14.00;11.70;;;10.50;99.90;;;;;;637205;221;27260;-80
2021/12/14 09:42:20;;;;;;;13.10;10.10;;;10.60;99.90;;;;;;636749;226;26584;-81
2021/12/14 09:44:47;;;;;;;13.57;10.10;;;10.30;99.90;;;;;;637280;222;26815;-81
2021/12/14 09:47:15;;;;;;;13.80;10.80;;;10.20;99.90;;;;;;647145;222;26512;-81
2021/12/14 09:49:42;;;;;;;12.70;10.30;;;10.20;99.90;;;;;;646811;222;26769;-81
2021/12/14 09:52:09;;;;;;;14.07;9.83;;;10.10;99.90;;;;;;647205;222;26522;-81
2021/12/14 09:54:36;;;;;;;14.37;10.30;;;10.30;99.90;;;;;;643881;221;26830;-81
2021/12/14 09:57:07;;;;;;;13.83;9.97;;;10.60;99.90;;;;;;641479;222;26578;-81
2021/12/14 09:59:34;;;;;;;13.03;10.60;;;10.60;99.90;;;;;;647014;222;26545;-81
2021/12/14 10:02:19;;;;;;;12.33;10.33;;;10.60;99.90;;;;;;647196;222;26530;-81
2021/12/14 10:04:48;;;;;;;10.97;9.33;;;10.90;99.90;;;;;;650220;221;26610;-81
2021/12/14 10:07:16;;;;;;;12.00;10.40;;;10.60;99.90;;;;;;650424;219;26741;-82
2021/12/14 10:09:44;;;;;;;14.20;10.20;;;10.20;99.90;;;;;;652004;220;26642;-82
2021/12/14 10:14:58;;;;;;;12.43;9.80;;;10.00;99.90;;;;;;641901;221;27114;-84
2021/12/14 10:17:25;;;;;;;13.80;10.40;;;10.10;99.90;;;;;;651295;221;26563;-82
2021/12/14 10:19:52;;;;;;;14.57;10.60;;;10.00;99.90;;;;;;651033;221;27261;-81
2021/12/14 10:22:23;;;;;;;11.07;9.90;;;10.00;99.90;;;;;;651036;221;26505;-84
2021/12/14 10:24:47;;;;;;;13.87;10.30;;;10.30;99.90;;;;;;650088;221;26855;-83
2021/12/14 10:27:14;;;;;;;12.23;10.10;;;10.20;99.90;;;;;;650468;216;26569;-82
2021/12/14 10:29:41;;;;;;;13.27;9.93;;;10.10;99.90;;;;;;650143;221;26878;-82
2021/12/14 10:32:08;;;;;;;14.73;10.37;;;10.20;99.90;;;;;;650422;221;26731;-79
2021/12/14 10:34:39;;;;;;;11.30;10.00;;;10.20;99.90;;;;;;650834;221;26544;-80
2021/12/14 10:37:10;;;;;;;14.07;10.77;;;10.20;99.90;;;;;;650567;221;26846;-87
2021/12/14 10:42:39;;;;;;;16.63;10.87;;;10.30;99.90;;;;;;650060;221;26915;-85
2021/12/14 10:44:43;;;;;;;13.17;10.40;;;10.20;99.90;;;;;;650745;221;26597;-83
2021/12/14 10:47:11;;;;;;;12.63;10.70;;;10.70;99.90;;;;;;650043;221;26618;-84
2021/12/14 10:49:39;;;;;;;13.57;10.20;;;10.40;99.90;;;;;;650370;221;26569;-81
2021/12/14 10:52:09;;;;;;;12.90;11.50;;;10.60;99.90;;;;;;650410;221;26605;-80
2021/12/14 10:54:35;;;;;;;12.80;10.63;;;10.60;99.90;;;;;;647028;221;27021;-81
2021/12/14 10:57:02;;;;;;;12.43;11.13;;;10.70;99.90;;;;;;642257;222;26579;-87
2021/12/14 10:59:29;;;;;;;12.97;10.03;;;10.70;99.90;;;;;;636873;226;26840;-83
2021/12/14 11:01:56;;;;;;;11.97;10.37;;;10.80;99.90;;;;;;637362;221;26518;-82
2021/12/14 11:04:27;;;;;;;12.30;10.00;;;10.50;99.90;;;;;;637442;226;26790;-79
2021/12/14 11:06:53;;;;;;;14.30;11.10;;;10.70;99.90;;;;;;637089;226;26589;-79
2021/12/14 11:11:56;;;;;;;12.20;10.50;;;10.90;99.90;;;;;;637370;226;26857;-80
2021/12/14 11:14:23;;;;;;;12.70;11.00;;;10.70;99.90;;;;;;637345;226;26536;-79
2021/12/14 11:19:38;;;;;;;13.00;10.90;;;10.50;99.90;;;;;;628849;223;26614;-79
2021/12/14 11:22:21;;;;;;;11.97;10.00;;;10.50;99.90;;;;;;638444;225;26752;-79
2021/12/14 11:24:47;;;;;;;13.40;10.77;;;10.10;99.90;;;;;;638412;225;26520;-79
2021/12/14 11:27:16;;;;;;;14.03;10.63;;;10.40;99.90;;;;;;638169;225;27272;-79
2021/12/14 11:29:44;;;;;;;11.97;10.57;;;11.00;99.90;;;;;;637869;225;26531;-79
2021/12/14 11:32:15;;;;;;;12.20;9.93;;;11.10;99.90;;;;;;637979;225;26524;-79
2021/12/14 11:34:45;;;;;;;11.90;10.60;;;11.10;99.90;;;;;;637960;225;26765;-79
2021/12/14 11:37:14;;;;;;;12.30;11.03;;;11.00;99.90;;;;;;637805;225;26504;-80
2021/12/14 11:39:38;;;;;;;11.80;9.70;;;10.90;99.90;;;;;;637167;225;26876;-80
2021/12/14 11:42:04;;;;;;;13.83;10.03;;;10.70;99.90;;;;;;637548;225;26661;-80
2021/12/14 11:44:33;;;;;;;12.80;10.43;;;10.80;99.90;;;;;;637562;225;26565;-80
2021/12/14 11:47:40;;;;;;;15.00;10.47;;;11.00;99.90;;;;;;637586;225;26552;-79
2021/12/14 11:49:40;;;;;;;13.47;10.03;;;11.00;99.90;;;;;;635619;225;26803;-80
2021/12/14 11:52:07;;;;;;;11.60;10.13;;;11.00;99.90;;;;;;637370;225;26557;-79
2021/12/14 11:54:48;;;;;;;13.33;10.70;;;11.30;99.90;;;;;;637595;225;26858;-80
2021/12/14 11:57:15;;;;;;;10.90;9.80;;;11.60;99.90;;;;;;637293;226;26559;-79
2021/12/14 11:59:42;;;;;;;10.90;9.53;;;11.70;99.90;;;;;;637175;223;27283;-79
2021/12/14 12:02:09;;;;;;;12.30;10.07;;;12.10;99.90;;;;;;637362;222;26572;-80
2021/12/14 12:04:42;;;;;;;11.47;10.27;;;12.00;99.90;;;;;;637351;226;27338;-80
2021/12/14 12:09:49;;;;;;;15.00;10.50;;;12.10;99.90;;;;;;634817;225;26626;-80
2021/12/14 12:12:21;;;;;;;10.70;9.60;;;12.10;99.90;;;;;;637219;221;26554;-79
2021/12/14 12:14:50;;;;;;;10.23;9.23;;;12.10;99.90;;;;;;637348;225;26616;-79
2021/12/14 12:17:23;;;;;;;12.13;9.80;;;11.70;99.90;;;;;;637308;226;26605;-79
2021/12/14 12:19:57;;;;;;;10.80;9.67;;;11.50;99.90;;;;;;637221;226;26799;-79
2021/12/14 12:22:22;;;;;;;10.47;9.43;;;11.50;99.90;;;;;;637239;226;26546;-79
2021/12/14 12:24:51;;;;;;;12.13;10.07;;;12.00;99.90;;;;;;637503;226;26836;-80
2021/12/14 12:27:25;;;;;;;11.53;10.30;;;12.40;99.90;;;;;;637372;226;26559;-79
2021/12/14 12:30:05;;;;;;;10.87;9.77;;;12.40;99.90;;;;;;637388;226;26579;-80
2021/12/14 12:32:32;;;;;;;14.57;9.97;;;12.20;99.90;;;;;;639206;223;26564;-80
2021/12/14 12:34:59;;;;;;;12.80;10.13;;;11.80;99.90;;;;;;638720;225;26755;-80
2021/12/14 12:37:39;;;;;;;11.87;9.60;;;11.80;99.90;;;;;;638491;221;26573;-81
2021/12/14 12:40:02;;;;;;;10.63;8.73;;;11.90;99.90;;;;;;637895;225;27274;-81
2021/12/14 12:42:30;;;;;;;10.23;9.13;;;11.90;99.90;;;;;;637972;225;27223;-80
2021/12/14 12:44:57;;;;;;;11.83;9.70;;;11.60;99.90;;;;;;638070;225;26504;-80
2021/12/14 12:47:25;;;;;;;12.10;10.07;;;11.20;99.90;;;;;;638020;225;26500;-79
2021/12/14 12:49:53;;;;;;;11.23;10.13;;;11.10;99.90;;;;;;637778;225;26572;-79
2021/12/14 12:52:22;;;;;;;11.40;10.20;;;11.10;99.90;;;;;;637467;225;26895;-79
2021/12/14 12:55:09;;;;;;;11.47;8.93;;;10.90;99.90;;;;;;638006;225;26805;-80
2021/12/14 12:57:58;;;;;;;11.60;9.83;;;10.90;99.90;;;;;;637862;225;26756;-79
2021/12/14 13:00:24;;;;;;;11.87;9.93;;;11.00;99.90;;;;;;637918;225;26521;-80
2021/12/14 13:02:54;;;;;;;11.30;10.00;;;11.10;99.90;;;;;;637925;225;26712;-80
2021/12/14 13:05:21;;;;;;;13.00;9.70;;;10.90;99.90;;;;;;637950;225;26480;-80
2021/12/14 13:07:56;;;;;;;11.13;9.97;;;11.00;99.90;;;;;;637530;225;26534;-80
2021/12/14 13:10:26;;;;;;;11.93;9.90;;;10.80;99.90;;;;;;637651;226;26561;-80
2021/12/14 13:12:54;;;;;;;16.90;10.47;;;11.20;99.90;;;;;;637631;226;26736;-80
2021/12/14 13:15:28;;;;;;;10.50;9.40;;;11.50;99.90;;;;;;637574;226;26534;-79